createdAt,value
2023-05-14T00:00:28.850Z,17.45
2023-05-14T00:03:14.936Z,17.47
2023-05-14T00:06:01.105Z,17.49
2023-05-14T00:08:47.290Z,17.46
2023-05-14T00:11:33.493Z,17.46
2023-05-14T00:14:19.898Z,17.48
2023-05-14T00:17:07.097Z,17.50
2023-05-14T00:19:53.271Z,17.45
2023-05-14T00:22:39.595Z,17.51
2023-05-14T00:25:25.987Z,17.48
2023-05-14T00:28:15.636Z,17.47
2023-05-14T00:31:01.604Z,17.41
2023-05-14T00:33:47.796Z,17.45
2023-05-14T00:36:33.580Z,17.47
2023-05-14T00:39:19.291Z,17.45
2023-05-14T00:42:05.677Z,17.44
2023-05-14T00:44:51.795Z,17.44
2023-05-14T00:47:39.469Z,17.43
2023-05-14T00:50:26.532Z,17.43
2023-05-14T00:53:13.699Z,17.41
2023-05-14T00:55:59.548Z,17.41
2023-05-14T00:58:45.700Z,17.44
2023-05-14T01:01:31.757Z,17.41
2023-05-14T01:04:17.956Z,17.42
2023-05-14T01:07:36.176Z,17.40
2023-05-14T01:10:29.466Z,17.40
2023-05-14T01:13:31.127Z,17.43
2023-05-14T01:16:19.447Z,17.39
2023-05-14T01:19:09.842Z,17.41
2023-05-14T01:21:55.739Z,17.45
2023-05-14T01:24:41.458Z,17.41
2023-05-14T01:27:49.897Z,17.39
2023-05-14T01:30:47.492Z,17.37
2023-05-14T01:33:34.432Z,17.34
2023-05-14T01:36:22.607Z,17.32
2023-05-14T01:39:09.718Z,17.28
2023-05-14T01:41:55.859Z,17.28
2023-05-14T01:44:41.944Z,17.24
2023-05-14T01:47:27.848Z,17.24
2023-05-14T01:50:13.740Z,17.19
2023-05-14T01:53:00.247Z,17.21
2023-05-14T01:55:46.788Z,17.16
2023-05-14T01:58:32.728Z,17.13
2023-05-14T02:01:18.730Z,17.20
2023-05-14T02:04:05.090Z,17.19
2023-05-14T02:06:51.397Z,17.18
2023-05-14T02:09:37.263Z,17.14
2023-05-14T02:12:23.036Z,17.05
2023-05-14T02:15:11.028Z,17.04
2023-05-14T02:17:57.046Z,17.03
2023-05-14T02:20:43.282Z,16.99
2023-05-14T02:23:40.402Z,17.00
2023-05-14T02:26:28.592Z,16.97
2023-05-14T02:29:14.671Z,16.94
2023-05-14T02:32:00.523Z,16.96
2023-05-14T02:34:46.482Z,16.93
2023-05-14T02:37:32.414Z,16.89
2023-05-14T02:40:18.302Z,16.88
2023-05-14T02:43:03.952Z,16.85
2023-05-14T02:45:49.605Z,16.81
2023-05-14T02:48:35.816Z,16.82
2023-05-14T02:51:22.022Z,16.81
2023-05-14T02:54:08.273Z,16.77
2023-05-14T02:56:54.619Z,16.78
2023-05-14T02:59:40.487Z,16.77
2023-05-14T03:02:27.024Z,16.76
2023-05-14T03:05:13.565Z,16.71
2023-05-14T03:08:01.176Z,16.72
2023-05-14T03:10:47.322Z,16.72
2023-05-14T03:13:33.444Z,16.70
2023-05-14T03:16:19.154Z,16.68
2023-05-14T03:19:05.078Z,16.64
2023-05-14T03:21:51.108Z,16.66
2023-05-14T03:24:40.046Z,16.66
2023-05-14T03:27:25.977Z,16.62
2023-05-14T03:30:12.471Z,16.62
2023-05-14T03:32:59.244Z,16.60
2023-05-14T03:35:45.160Z,16.59
2023-05-14T03:38:31.272Z,16.56
2023-05-14T03:41:18.672Z,16.57
2023-05-14T03:44:06.419Z,16.54
2023-05-14T03:46:52.194Z,16.49
2023-05-14T03:49:37.964Z,16.49
2023-05-14T03:52:28.581Z,16.52
2023-05-14T03:55:14.450Z,16.48
2023-05-14T03:58:02.684Z,16.42
2023-05-14T04:00:48.759Z,16.48
2023-05-14T04:03:35.036Z,16.44
2023-05-14T04:06:21.004Z,16.46
2023-05-14T04:09:07.042Z,16.44
2023-05-14T04:11:54.353Z,16.45
2023-05-14T04:14:40.455Z,16.42
2023-05-14T04:17:27.074Z,16.42
2023-05-14T04:20:12.764Z,16.39
2023-05-14T04:22:58.422Z,16.35
2023-05-14T04:25:44.385Z,16.37
2023-05-14T04:28:30.509Z,16.40
2023-05-14T04:31:16.539Z,16.41
2023-05-14T04:34:02.722Z,16.37
2023-05-14T04:36:48.461Z,16.41
2023-05-14T04:39:34.316Z,16.40
2023-05-14T04:42:19.903Z,16.35
2023-05-14T04:45:06.854Z,16.37
2023-05-14T04:47:52.901Z,16.35
2023-05-14T04:50:38.886Z,16.35
2023-05-14T04:53:24.884Z,16.35
2023-05-14T04:56:10.893Z,16.37
2023-05-14T04:58:56.959Z,16.36
2023-05-14T05:01:43.127Z,16.38
2023-05-14T05:04:29.255Z,16.39
2023-05-14T05:07:14.968Z,16.38
2023-05-14T05:10:00.865Z,16.34
2023-05-14T05:12:46.945Z,16.32
2023-05-14T05:15:33.229Z,16.30
2023-05-14T05:18:19.337Z,16.29
2023-05-14T05:21:05.826Z,16.25
2023-05-14T05:23:51.882Z,16.26
2023-05-14T05:26:38.071Z,16.25
2023-05-14T05:29:24.584Z,16.26
2023-05-14T05:32:10.887Z,16.25
2023-05-14T05:34:57.202Z,16.23
2023-05-14T05:37:43.316Z,16.22
2023-05-14T05:40:29.541Z,16.20
2023-05-14T05:43:15.648Z,16.20
2023-05-14T05:46:01.754Z,16.18
2023-05-14T05:48:47.822Z,16.08
2023-05-14T05:51:33.611Z,16.11
2023-05-14T05:54:19.567Z,16.08
2023-05-14T05:57:05.785Z,16.07
2023-05-14T05:59:51.477Z,16.08
2023-05-14T06:02:37.353Z,16.08
2023-05-14T06:05:23.922Z,16.06
2023-05-14T06:08:10.219Z,16.06
2023-05-14T06:10:56.408Z,16.07
2023-05-14T06:13:42.060Z,16.07
2023-05-14T06:16:28.054Z,16.05
2023-05-14T06:19:14.161Z,16.09
2023-05-14T06:22:00.395Z,16.12
2023-05-14T06:24:46.317Z,16.11
2023-05-14T06:27:32.138Z,16.16
2023-05-14T06:30:19.077Z,16.07
2023-05-14T06:33:05.440Z,16.06
2023-05-14T06:36:03.471Z,16.11
2023-05-14T06:38:49.832Z,16.09
2023-05-14T06:41:35.891Z,16.06
2023-05-14T06:44:21.731Z,16.07
2023-05-14T06:47:08.574Z,16.09
2023-05-14T06:49:55.906Z,16.08
2023-05-14T06:52:43.629Z,16.12
2023-05-14T06:55:31.765Z,16.14
2023-05-14T06:58:17.628Z,16.14
2023-05-14T07:01:03.472Z,16.19
2023-05-14T07:03:49.361Z,16.23
2023-05-14T07:06:35.602Z,16.27
2023-05-14T07:09:22.191Z,16.28
2023-05-14T07:12:08.455Z,16.28
2023-05-14T07:14:54.169Z,16.30
2023-05-14T07:17:40.133Z,16.28
2023-05-14T07:20:26.194Z,16.24
2023-05-14T07:23:12.840Z,16.29
2023-05-14T07:25:59.227Z,16.28
2023-05-14T07:28:45.570Z,16.36
2023-05-14T07:31:32.100Z,16.36
2023-05-14T07:34:18.884Z,16.35
2023-05-14T07:37:05.089Z,16.37
2023-05-14T07:39:51.280Z,16.38
2023-05-14T07:42:37.663Z,16.43
2023-05-14T07:45:23.962Z,16.45
2023-05-14T07:48:10.078Z,16.44
2023-05-14T07:50:59.006Z,16.47
2023-05-14T07:53:45.238Z,16.44
2023-05-14T07:56:31.060Z,16.46
2023-05-14T08:00:40.857Z,16.47
2023-05-14T08:03:27.075Z,16.47
2023-05-14T08:06:14.611Z,16.47
2023-05-14T08:09:00.754Z,16.47
2023-05-14T08:16:14.655Z,16.50
2023-05-14T08:19:00.999Z,16.51
2023-05-14T08:26:16.308Z,16.54
2023-05-14T08:29:02.393Z,16.51
2023-05-14T08:31:49.695Z,16.48
2023-05-14T08:54:01.705Z,16.51
2023-05-14T08:57:24.685Z,16.51
2023-05-14T09:00:15.761Z,16.53
2023-05-14T09:03:02.395Z,16.53
2023-05-14T09:05:51.605Z,16.56
2023-05-14T09:08:39.029Z,16.54
2023-05-14T09:11:47.135Z,16.56
2023-05-14T09:14:49.330Z,16.60
2023-05-14T09:17:35.932Z,16.63
2023-05-14T09:20:43.626Z,16.65
2023-05-14T09:23:32.944Z,16.69
2023-05-14T09:26:18.987Z,16.71
2023-05-14T09:29:55.062Z,16.76
2023-05-14T09:32:45.849Z,16.77
2023-05-14T09:35:32.703Z,16.81
2023-05-14T09:38:18.579Z,16.89
2023-05-14T09:41:04.473Z,16.93
2023-05-14T09:43:52.951Z,16.99
2023-05-14T09:46:38.687Z,17.03
2023-05-14T09:49:33.286Z,17.08
2023-05-14T09:52:39.659Z,17.13
2023-05-14T09:55:26.237Z,17.15
2023-05-14T09:58:14.410Z,17.18
2023-05-14T10:01:33.238Z,17.19
2023-05-14T10:14:18.630Z,17.36
2023-05-14T10:18:13.924Z,17.41
2023-05-14T10:21:05.757Z,17.44
2023-05-14T10:23:52.471Z,17.47
2023-05-14T10:26:40.751Z,17.52
2023-05-14T10:31:04.591Z,17.56
2023-05-14T10:38:55.581Z,17.64
2023-05-14T10:42:00.819Z,17.67
2023-05-14T10:53:41.199Z,17.56
2023-05-14T10:56:26.988Z,17.47
2023-05-14T10:59:12.709Z,17.56
2023-05-14T11:01:58.485Z,17.52
2023-05-14T11:04:55.448Z,17.52
2023-05-14T11:07:43.056Z,17.49
2023-05-14T11:10:32.680Z,17.44
2023-05-14T11:13:19.434Z,17.42
2023-05-14T11:16:19.011Z,17.42
2023-05-14T11:19:09.698Z,17.37
2023-05-14T11:21:56.754Z,17.37
2023-05-14T11:24:43.079Z,17.40
2023-05-14T11:27:28.817Z,17.41
2023-05-14T11:30:18.594Z,17.42
2023-05-14T11:33:04.907Z,17.40
2023-05-14T11:35:52.396Z,17.37
2023-05-14T11:38:49.102Z,17.36
2023-05-14T11:41:35.153Z,17.33
2023-05-14T11:44:20.814Z,17.36
2023-05-14T11:47:07.276Z,17.37
2023-05-14T11:49:53.257Z,17.34
2023-05-14T11:52:42.312Z,17.35
2023-05-14T11:55:29.123Z,17.32
2023-05-14T11:58:17.089Z,17.32
2023-05-14T12:01:02.862Z,17.30
2023-05-14T12:03:49.165Z,17.36
2023-05-14T12:06:35.183Z,17.37
2023-05-14T12:09:22.576Z,17.35
2023-05-14T12:12:12.243Z,17.39
2023-05-14T12:15:00.048Z,17.41
2023-05-14T12:17:52.377Z,17.43
2023-05-14T12:21:03.175Z,17.42
2023-05-14T12:24:25.597Z,17.41
2023-05-14T12:27:12.283Z,17.42
2023-05-14T12:30:19.838Z,17.44
2023-05-14T12:33:12.455Z,17.45
2023-05-14T12:36:10.013Z,17.46
2023-05-14T12:39:34.052Z,17.42
2023-05-14T12:42:20.184Z,17.45
2023-05-14T12:46:33.997Z,17.42
2023-05-14T12:49:20.473Z,17.41
2023-05-14T12:52:25.618Z,17.43
2023-05-14T12:55:19.877Z,17.45
2023-05-14T12:58:05.652Z,17.43
2023-05-14T13:00:51.842Z,17.42
2023-05-14T13:03:38.239Z,17.41
2023-05-14T13:06:24.295Z,17.38
2023-05-14T13:09:56.165Z,17.37
2023-05-14T13:12:42.228Z,17.33
2023-05-14T13:15:53.377Z,17.34
2023-05-14T13:18:39.107Z,17.34
2023-05-14T13:21:28.013Z,17.33
2023-05-14T13:24:14.075Z,17.35
2023-05-14T13:26:59.899Z,17.34
2023-05-14T13:29:45.890Z,17.34
2023-05-14T13:32:31.804Z,17.33
2023-05-14T13:35:17.904Z,17.33
2023-05-14T13:38:04.106Z,17.33
2023-05-14T13:40:50.233Z,17.32
2023-05-14T13:43:36.269Z,17.33
2023-05-14T13:46:22.414Z,17.31
2023-05-14T13:49:35.111Z,17.33
2023-05-14T13:52:21.788Z,17.34
2023-05-14T13:55:19.202Z,17.35
2023-05-14T13:58:41.193Z,17.37
2023-05-14T14:02:01.903Z,17.37
2023-05-14T14:04:47.763Z,17.37
2023-05-14T14:07:33.564Z,17.38
2023-05-14T14:10:19.390Z,17.37
2023-05-14T14:13:05.151Z,17.37
2023-05-14T14:16:58.871Z,17.33
2023-05-14T14:19:44.980Z,17.32
2023-05-14T14:22:30.661Z,17.33
2023-05-14T14:25:16.537Z,17.33
2023-05-14T14:28:05.709Z,17.36
2023-05-14T14:31:24.108Z,17.34
2023-05-14T14:34:10.008Z,17.31
2023-05-14T14:36:56.234Z,17.34
2023-05-14T14:39:42.088Z,17.32
2023-05-14T14:42:28.059Z,17.32
2023-05-14T14:45:14.204Z,17.33
2023-05-14T14:48:54.539Z,17.32
2023-05-14T14:51:41.482Z,17.29
2023-05-14T14:54:27.646Z,17.29
2023-05-14T14:57:13.892Z,17.30
2023-05-14T15:00:40.430Z,17.22
2023-05-14T15:03:26.730Z,17.21
2023-05-14T15:06:13.042Z,17.24
2023-05-14T15:09:30.345Z,17.25
2023-05-14T15:12:17.169Z,17.26
2023-05-14T15:15:03.262Z,17.28
2023-05-14T15:18:02.200Z,17.27
2023-05-14T15:21:07.341Z,17.26
2023-05-14T15:23:53.248Z,17.29
2023-05-14T15:26:39.477Z,17.28
2023-05-14T15:29:25.583Z,17.25
2023-05-14T15:32:11.812Z,17.29
2023-05-14T15:35:31.134Z,17.29
2023-05-14T15:38:17.207Z,17.30
2023-05-14T15:41:15.783Z,17.31
2023-05-14T15:44:01.868Z,17.34
2023-05-14T15:46:47.576Z,17.36
2023-05-14T15:49:33.403Z,17.33
2023-05-14T15:52:19.072Z,17.40
2023-05-14T15:55:40.044Z,17.37
2023-05-14T15:58:26.713Z,17.45
2023-05-14T16:01:36.261Z,17.43
2023-05-14T16:05:36.798Z,17.45
2023-05-14T16:08:22.690Z,17.45
2023-05-14T16:11:08.575Z,17.44
2023-05-14T16:13:54.394Z,17.47
2023-05-14T16:17:23.527Z,17.44
2023-05-14T16:21:19.160Z,17.45
2023-05-14T16:24:06.398Z,17.43
2023-05-14T16:26:52.341Z,17.45
2023-05-14T16:29:38.085Z,17.46
2023-05-14T16:32:25.326Z,17.45
2023-05-14T16:35:11.601Z,17.47
2023-05-14T16:37:58.027Z,17.46
2023-05-14T16:40:44.062Z,17.47
2023-05-14T16:43:29.969Z,17.52
2023-05-14T16:46:16.265Z,17.50
2023-05-14T16:49:05.086Z,17.54
2023-05-14T16:51:51.275Z,17.54
2023-05-14T16:54:40.319Z,17.58
2023-05-14T16:57:26.928Z,17.58
2023-05-14T17:00:19.049Z,17.58
2023-05-14T17:03:07.469Z,17.64
2023-05-14T17:05:53.658Z,17.65
2023-05-14T17:08:39.771Z,17.68
2023-05-14T17:11:29.032Z,17.73
2023-05-14T17:14:15.037Z,17.75
2023-05-14T17:17:01.097Z,17.71
2023-05-14T17:19:47.175Z,17.74
2023-05-14T17:22:33.623Z,17.75
2023-05-14T17:25:19.612Z,17.75
2023-05-14T17:28:05.685Z,17.70
2023-05-14T17:30:52.136Z,17.72
2023-05-14T17:33:39.361Z,17.72
2023-05-14T17:36:26.039Z,17.74
2023-05-14T17:39:12.069Z,17.75
2023-05-14T17:41:57.923Z,17.75
2023-05-14T17:44:43.928Z,17.71
2023-05-14T17:47:30.151Z,17.74
2023-05-14T17:50:16.200Z,17.71
2023-05-14T17:53:02.035Z,17.70
2023-05-14T17:55:48.541Z,17.66
2023-05-14T17:58:35.463Z,17.70
2023-05-14T18:01:21.280Z,17.69
2023-05-14T18:04:07.259Z,17.66
2023-05-14T18:06:53.608Z,17.64
2023-05-14T18:09:39.813Z,17.62
2023-05-14T18:12:26.991Z,17.58
2023-05-14T18:15:13.171Z,17.56
2023-05-14T18:17:59.357Z,17.52
2023-05-14T18:20:45.597Z,17.54
2023-05-14T18:23:31.870Z,17.50
2023-05-14T18:26:18.244Z,17.48
2023-05-14T18:29:04.154Z,17.47
2023-05-14T18:31:50.470Z,17.44
2023-05-14T18:34:36.632Z,17.42
2023-05-14T18:37:22.756Z,17.41
2023-05-14T18:40:09.271Z,17.42
2023-05-14T18:42:56.787Z,17.40
2023-05-14T18:45:43.169Z,17.38
2023-05-14T18:48:29.166Z,17.39
2023-05-14T18:51:15.336Z,17.37
2023-05-14T18:54:01.100Z,17.41
2023-05-14T18:56:47.728Z,17.39
2023-05-14T18:59:33.815Z,17.38
2023-05-14T19:02:20.202Z,17.41
2023-05-14T19:05:06.962Z,17.37
2023-05-14T19:07:52.684Z,17.32
2023-05-14T19:10:38.616Z,17.36
2023-05-14T19:13:24.535Z,17.34
2023-05-14T19:16:11.045Z,17.36
2023-05-14T19:18:57.142Z,17.37
2023-05-14T19:21:43.292Z,17.35
2023-05-14T19:24:28.988Z,17.40
2023-05-14T19:27:16.644Z,17.41
2023-05-14T19:30:02.463Z,17.45
2023-05-14T19:32:53.829Z,17.48
2023-05-14T19:35:39.832Z,17.47
2023-05-14T19:38:25.725Z,17.50
2023-05-14T19:41:11.820Z,17.45
2023-05-14T19:43:57.900Z,17.52
2023-05-14T19:46:43.670Z,17.51
2023-05-14T19:49:29.433Z,17.52
2023-05-14T19:52:15.356Z,17.51
2023-05-14T19:55:01.267Z,17.53
2023-05-14T19:57:47.175Z,17.48
2023-05-14T20:00:33.505Z,17.46
2023-05-14T20:03:28.713Z,17.46
2023-05-14T20:06:15.791Z,17.41
2023-05-14T20:09:02.578Z,17.39
2023-05-14T20:11:48.739Z,17.34
2023-05-14T20:14:34.798Z,17.33
2023-05-14T20:17:23.737Z,17.32
2023-05-14T20:20:12.154Z,17.31
2023-05-14T20:22:58.240Z,17.26
2023-05-14T20:25:44.353Z,17.26
2023-05-14T20:28:30.739Z,17.23
2023-05-14T20:31:16.965Z,17.16
2023-05-14T20:34:03.740Z,17.18
2023-05-14T20:36:50.184Z,17.13
2023-05-14T20:39:36.481Z,17.07
2023-05-14T20:42:23.449Z,17.04
2023-05-14T20:45:09.735Z,16.97
2023-05-14T20:47:55.823Z,16.90
2023-05-14T20:50:41.737Z,16.88
2023-05-14T20:53:28.857Z,16.81
2023-05-14T20:56:14.762Z,16.78
2023-05-14T20:59:00.698Z,16.76
2023-05-14T21:01:47.038Z,16.72
2023-05-14T21:04:33.580Z,16.71
2023-05-14T21:07:19.681Z,16.65
2023-05-14T21:10:06.405Z,16.66
2023-05-14T21:12:52.503Z,16.61
2023-05-14T21:15:38.691Z,16.58
2023-05-14T21:18:27.719Z,16.59
2023-05-14T21:21:13.712Z,16.51
2023-05-14T21:23:59.934Z,16.47
2023-05-14T21:26:46.582Z,16.47
2023-05-14T21:29:32.337Z,16.48
2023-05-14T21:32:20.920Z,16.40
2023-05-14T21:35:07.583Z,16.41
2023-05-14T21:37:53.553Z,16.36
2023-05-14T21:40:39.711Z,16.37
2023-05-14T21:43:25.899Z,16.41
2023-05-14T21:46:11.721Z,16.35
2023-05-14T21:48:58.775Z,16.38
2023-05-14T21:51:44.650Z,16.33
2023-05-14T21:54:30.384Z,16.36
2023-05-14T21:57:16.579Z,16.30
2023-05-14T22:00:04.413Z,16.31
2023-05-14T22:02:52.103Z,16.31
2023-05-14T22:05:37.879Z,16.32
2023-05-14T22:08:30.144Z,16.25
2023-05-14T22:11:16.486Z,16.29
2023-05-14T22:14:02.668Z,16.25
2023-05-14T22:16:48.913Z,16.25
2023-05-14T22:19:35.116Z,16.20
2023-05-14T22:22:21.570Z,16.18
2023-05-14T22:25:17.037Z,16.02
2023-05-14T22:28:03.413Z,16.18
2023-05-14T22:30:50.023Z,16.18
2023-05-14T22:33:36.608Z,16.15
2023-05-14T22:36:23.117Z,16.12
2023-05-14T22:39:10.573Z,16.08
2023-05-14T22:41:58.724Z,16.05
2023-05-14T22:44:44.525Z,16.05
2023-05-14T22:47:30.636Z,16.08
2023-05-14T22:50:16.759Z,16.10
2023-05-14T22:53:03.155Z,16.13
2023-05-14T22:55:49.219Z,16.16
2023-05-14T22:58:34.951Z,16.20
2023-05-14T23:01:20.826Z,16.18
2023-05-14T23:04:06.929Z,16.22
2023-05-14T23:06:52.938Z,16.25
2023-05-14T23:09:38.711Z,16.25
2023-05-14T23:12:24.550Z,16.30
2023-05-14T23:15:10.876Z,16.31
2023-05-14T23:17:57.063Z,16.28
2023-05-14T23:20:42.938Z,16.34
2023-05-14T23:23:28.861Z,16.26
2023-05-14T23:26:14.810Z,16.32
2023-05-14T23:29:00.786Z,16.32
2023-05-14T23:31:47.028Z,16.38
2023-05-14T23:34:33.291Z,16.37
2023-05-14T23:37:19.015Z,16.39
2023-05-14T23:40:07.340Z,16.36
2023-05-14T23:42:52.856Z,16.40
2023-05-14T23:45:39.076Z,16.38
2023-05-14T23:48:25.629Z,16.36
2023-05-14T23:51:11.365Z,16.39
2023-05-14T23:53:58.725Z,16.31
2023-05-14T23:56:44.956Z,16.38
2023-05-14T23:59:30.997Z,16.34
